Whitman, Nebraska
Current Conditions -  °F | °C
As of 8:35 PM on Monday 20 Oct 2014 (Local Time) from KTIF Reporting Station
Clear Clear  
Wind Chill: 62°   Ceiling: Unl
Heat Index: 62°   Visibility: 10mi
Dew Point: 40°   Wind: 10mph
Humidity: 46%   Direction: 170°S
Pressure: 30.03"   Gusts: NA
Location:  42.04°N, 101.52°W
Report Text: KTIF 210235Z AUTO 17009KT 10SM CLR 17/05 A3003 RMK AO2 T01650047
Loading
Personal Weather Stations






























Interactive Weather Map
Tropical Storm Tracking
New forecast layout! Learn more

10-Day Weather Forecast

Advertisements
Track Severe Weather on mobile